createdAt,value
2023-05-20T00:01:21.528Z,8.89
2023-05-20T00:03:54.444Z,8.76
2023-05-20T00:06:41.653Z,8.36
2023-05-20T00:09:25.423Z,8.84
2023-05-20T00:11:59.736Z,8.45
2023-05-20T00:14:44.682Z,8.80
2023-05-20T00:17:25.596Z,8.64
2023-05-20T00:20:01.994Z,8.49
2023-05-20T00:23:06.575Z,8.44
2023-05-20T00:26:45.974Z,8.34
2023-05-20T00:30:01.568Z,8.93
2023-05-20T00:32:57.061Z,8.90
2023-05-20T00:36:29.907Z,8.29
2023-05-20T00:55:05.935Z,8.46
2023-05-20T00:59:09.861Z,8.49
2023-05-20T01:11:15.731Z,8.30
2023-05-20T01:20:00.542Z,8.40
2023-05-20T01:23:08.129Z,9.14
2023-05-20T01:31:20.241Z,8.73
2023-05-20T01:34:13.406Z,8.82
2023-05-20T01:38:37.793Z,8.60
2023-05-20T01:49:24.657Z,8.98
2023-05-20T01:52:59.605Z,9.16
2023-05-20T02:00:09.405Z,9.03
2023-05-20T02:03:25.949Z,8.94
2023-05-20T02:06:38.282Z,9.29
2023-05-20T02:13:39.370Z,8.87
2023-05-20T02:16:37.182Z,9.41
2023-05-20T02:19:38.400Z,9.23
2023-05-20T02:22:26.894Z,9.35
2023-05-20T02:25:00.558Z,9.25
2023-05-20T02:27:37.283Z,9.38
2023-05-20T02:30:19.863Z,9.51
2023-05-20T02:33:12.068Z,9.33
2023-05-20T02:36:08.906Z,9.72
2023-05-20T02:38:42.118Z,9.16
2023-05-20T02:41:48.786Z,9.65
2023-05-20T02:44:26.641Z,9.50
2023-05-20T02:47:08.236Z,9.28
2023-05-20T02:49:50.377Z,9.65
2023-05-20T02:52:37.990Z,10.27
2023-05-20T02:55:30.085Z,10.06
2023-05-20T02:58:34.886Z,9.73
2023-05-20T03:01:13.753Z,9.80
2023-05-20T03:03:56.673Z,9.63
2023-05-20T03:06:37.101Z,9.88
2023-05-20T03:09:10.029Z,9.19
2023-05-20T03:12:01.964Z,8.84
2023-05-20T03:14:41.321Z,8.95
2023-05-20T03:17:25.049Z,9.34
2023-05-20T03:20:08.847Z,9.47
2023-05-20T03:22:50.069Z,10.11
2023-05-20T03:25:28.685Z,10.27
2023-05-20T03:28:14.216Z,10.17
2023-05-20T03:30:56.974Z,9.73
2023-05-20T03:33:30.102Z,10.01
2023-05-20T03:36:09.549Z,9.99
2023-05-20T03:39:01.818Z,10.05
2023-05-20T03:41:50.450Z,10.31
2023-05-20T03:44:26.245Z,10.20
2023-05-20T03:47:06.338Z,10.09
2023-05-20T03:49:39.081Z,10.48
2023-05-20T03:52:18.092Z,10.78
2023-05-20T03:55:01.209Z,10.77
2023-05-20T03:57:35.415Z,10.31
2023-05-20T04:00:24.732Z,10.59
2023-05-20T04:03:05.380Z,10.61
2023-05-20T04:05:38.403Z,10.28
2023-05-20T04:08:22.751Z,10.14
2023-05-20T04:11:02.289Z,10.61
2023-05-20T04:14:01.467Z,10.69
2023-05-20T04:16:38.321Z,10.75
2023-05-20T04:19:29.790Z,10.27
2023-05-20T04:22:09.712Z,10.64
2023-05-20T04:24:49.380Z,10.88
2023-05-20T04:27:34.258Z,10.36
2023-05-20T04:30:09.485Z,10.75
2023-05-20T04:33:25.565Z,10.78
2023-05-20T04:36:00.534Z,10.23
2023-05-20T04:38:42.904Z,10.60
2023-05-20T04:41:24.926Z,10.57
2023-05-20T04:47:02.442Z,10.78
2023-05-20T04:49:38.330Z,10.80
2023-05-20T04:52:12.800Z,10.73
2023-05-20T04:54:48.680Z,10.75
2023-05-20T04:57:23.481Z,10.70
2023-05-20T05:00:01.007Z,10.67
2023-05-20T05:02:33.400Z,10.92
2023-05-20T05:05:27.115Z,11.01
2023-05-20T05:08:26.715Z,11.05
2023-05-20T05:11:08.580Z,10.97
2023-05-20T05:13:37.881Z,10.84
2023-05-20T05:16:34.173Z,10.71
2023-05-20T05:21:56.592Z,10.96
2023-05-20T05:24:37.757Z,11.13
2023-05-20T05:27:08.602Z,11.00
2023-05-20T05:29:55.756Z,10.87
2023-05-20T05:32:28.190Z,10.24
2023-05-20T05:35:09.136Z,10.52
2023-05-20T05:37:40.469Z,10.96
2023-05-20T05:40:21.982Z,11.04
2023-05-20T05:42:56.930Z,10.87
2023-05-20T05:45:30.458Z,10.79
2023-05-20T05:48:05.134Z,11.18
2023-05-20T05:50:38.123Z,10.70
2023-05-20T05:53:10.007Z,10.85
2023-05-20T05:55:59.135Z,10.96
2023-05-20T05:58:35.902Z,11.11
2023-05-20T06:01:21.664Z,11.38
2023-05-20T06:03:54.871Z,11.16
2023-05-20T06:06:42.912Z,11.27
2023-05-20T06:10:05.238Z,11.30
2023-05-20T06:12:35.909Z,11.46
2023-05-20T06:15:56.890Z,11.42
2023-05-20T06:18:38.598Z,11.28
2023-05-20T06:21:22.750Z,11.49
2023-05-20T06:23:58.844Z,11.54
2023-05-20T06:26:33.328Z,11.45
2023-05-20T06:29:10.881Z,10.93
2023-05-20T06:33:11.414Z,11.11
2023-05-20T06:35:57.906Z,11.08
2023-05-20T06:38:37.389Z,10.93
2023-05-20T06:41:19.138Z,11.23
2023-05-20T06:43:58.719Z,11.12
2023-05-20T06:46:56.977Z,11.17
2023-05-20T06:49:33.207Z,11.36
2023-05-20T06:55:26.184Z,11.48
2023-05-20T06:58:01.578Z,11.41
2023-05-20T07:00:30.924Z,11.40
2023-05-20T07:03:05.730Z,11.39
2023-05-20T07:05:40.416Z,11.42
2023-05-20T07:08:30.261Z,11.25
2023-05-20T07:11:02.485Z,11.38
2023-05-20T07:13:38.079Z,11.58
2023-05-20T07:16:11.721Z,11.47
2023-05-20T07:18:53.601Z,11.61
2023-05-20T07:21:22.726Z,10.54
2023-05-20T07:24:22.517Z,10.97
2023-05-20T07:27:02.791Z,11.46
2023-05-20T07:29:45.597Z,10.96
2023-05-20T07:32:24.740Z,11.38
2023-05-20T07:34:54.444Z,11.25
2023-05-20T07:37:29.998Z,11.77
2023-05-20T07:40:23.070Z,11.31
2023-05-20T07:42:58.751Z,11.37
2023-05-20T07:45:39.124Z,11.73
2023-05-20T07:48:13.416Z,11.57
2023-05-20T07:50:58.907Z,11.65
2023-05-20T07:53:34.413Z,11.54
2023-05-20T07:56:28.064Z,11.42
2023-05-20T07:59:00.857Z,11.63
2023-05-20T08:01:38.146Z,11.83
2023-05-20T08:04:18.394Z,11.73
2023-05-20T08:10:01.504Z,11.34
2023-05-20T08:12:31.611Z,11.67
2023-05-20T08:15:00.344Z,11.42
2023-05-20T08:17:29.425Z,11.80
2023-05-20T08:20:01.365Z,11.90
2023-05-20T08:22:31.037Z,11.88
2023-05-20T08:24:59.292Z,11.77
2023-05-20T08:27:29.092Z,11.44
2023-05-20T08:30:00.668Z,11.75
2023-05-20T08:32:31.481Z,11.07
2023-05-20T08:35:02.318Z,11.48
2023-05-20T08:37:31.446Z,11.28
2023-05-20T08:39:59.630Z,11.24
2023-05-20T08:42:29.752Z,11.48
2023-05-20T08:45:00.684Z,11.64
2023-05-20T08:47:32.396Z,11.27
2023-05-20T08:50:01.017Z,11.34
2023-05-20T08:52:33.685Z,11.57
2023-05-20T08:55:04.095Z,11.19
2023-05-20T08:57:34.882Z,11.21
2023-05-20T09:00:10.551Z,11.80
2023-05-20T09:02:42.522Z,11.55
2023-05-20T09:05:12.334Z,11.92
2023-05-20T09:07:43.134Z,11.57
2023-05-20T09:10:11.955Z,10.88
2023-05-20T09:12:41.933Z,11.48
2023-05-20T09:15:10.714Z,11.51
2023-05-20T09:17:39.891Z,11.78
2023-05-20T09:20:12.183Z,11.73
2023-05-20T09:22:40.979Z,11.65
2023-05-20T09:25:11.578Z,11.53
2023-05-20T09:27:42.741Z,11.81
2023-05-20T09:30:13.650Z,11.48
2023-05-20T09:32:42.878Z,11.79
2023-05-20T09:35:15.117Z,11.80
2023-05-20T09:37:49.200Z,11.75
2023-05-20T09:40:21.981Z,11.45
2023-05-20T09:43:11.877Z,11.88
2023-05-20T09:45:40.870Z,11.72
2023-05-20T09:48:11.946Z,11.52
2023-05-20T09:50:41.355Z,11.50
2023-05-20T09:53:14.037Z,11.93
2023-05-20T09:55:43.758Z,11.64
2023-05-20T09:58:16.430Z,11.97
2023-05-20T10:00:46.195Z,11.71
2023-05-20T10:03:14.834Z,11.71
2023-05-20T10:06:22.430Z,12.32
2023-05-20T10:09:07.952Z,11.85
2023-05-20T10:11:47.900Z,11.23
2023-05-20T10:14:31.707Z,11.66
2023-05-20T10:17:21.475Z,12.00
2023-05-20T10:19:51.597Z,11.89
2023-05-20T10:22:35.104Z,11.30
2023-05-20T10:25:10.057Z,12.00
2023-05-20T10:27:46.708Z,12.13
2023-05-20T10:30:22.124Z,12.19
2023-05-20T10:32:57.219Z,12.24
2023-05-20T10:35:27.226Z,11.87
2023-05-20T10:38:11.798Z,12.38
2023-05-20T10:40:41.972Z,12.28
2023-05-20T10:43:14.832Z,12.22
2023-05-20T10:45:53.506Z,12.25
2023-05-20T10:48:33.728Z,12.46
2023-05-20T10:51:07.413Z,12.31
2023-05-20T10:53:47.675Z,12.32
2023-05-20T10:56:24.764Z,12.51
2023-05-20T10:58:54.935Z,12.17
2023-05-20T11:01:28.322Z,12.24
2023-05-20T11:03:58.601Z,12.26
2023-05-20T11:06:30.576Z,12.58
2023-05-20T11:09:07.366Z,12.65
2023-05-20T11:11:36.018Z,12.52
2023-05-20T11:14:05.529Z,12.56
2023-05-20T11:16:34.287Z,12.80
2023-05-20T11:19:03.973Z,12.73
2023-05-20T11:21:33.384Z,12.67
2023-05-20T11:24:01.937Z,12.77
2023-05-20T11:26:30.818Z,12.52
2023-05-20T11:29:01.299Z,12.72
2023-05-20T11:31:34.798Z,12.57
2023-05-20T11:34:05.079Z,12.52
2023-05-20T11:36:33.602Z,12.68
2023-05-20T11:39:02.227Z,12.90
2023-05-20T11:41:30.746Z,12.76
2023-05-20T11:44:00.250Z,12.33
2023-05-20T11:46:29.777Z,12.62
2023-05-20T11:48:59.943Z,12.67
2023-05-20T11:51:29.854Z,12.61
2023-05-20T11:54:07.079Z,12.83
2023-05-20T11:56:39.169Z,12.76
2023-05-20T11:59:09.862Z,12.67
2023-05-20T12:01:46.541Z,12.73
2023-05-20T12:04:15.827Z,12.78
2023-05-20T12:06:45.059Z,12.75
2023-05-20T12:09:14.606Z,12.77
2023-05-20T12:11:46.960Z,12.84
2023-05-20T12:14:19.803Z,13.14
2023-05-20T12:16:48.434Z,12.71
2023-05-20T12:19:17.401Z,13.03
2023-05-20T12:21:47.918Z,13.16
2023-05-20T12:24:17.064Z,13.01
2023-05-20T12:26:46.057Z,12.55
2023-05-20T12:29:16.399Z,13.10
2023-05-20T12:31:46.442Z,12.66
2023-05-20T12:34:16.103Z,12.89
2023-05-20T12:36:45.557Z,12.63
2023-05-20T12:39:16.018Z,12.62
2023-05-20T12:41:46.828Z,12.89
2023-05-20T12:44:17.486Z,12.63
2023-05-20T12:46:48.647Z,12.63
2023-05-20T12:49:17.511Z,12.61
2023-05-20T12:51:46.540Z,12.93
2023-05-20T12:54:15.987Z,12.41
2023-05-20T12:56:48.248Z,12.67
2023-05-20T12:59:17.329Z,12.51
2023-05-20T13:01:47.991Z,12.86
2023-05-20T13:04:17.392Z,12.57
2023-05-20T13:06:46.038Z,12.85
2023-05-20T13:09:14.953Z,12.92
2023-05-20T13:11:43.545Z,12.99
2023-05-20T13:14:12.870Z,12.55
2023-05-20T13:16:43.883Z,12.80
2023-05-20T13:19:16.262Z,11.72
2023-05-20T13:21:45.356Z,11.93
2023-05-20T13:24:13.883Z,12.52
2023-05-20T13:26:43.078Z,12.10
2023-05-20T13:29:11.681Z,12.76
2023-05-20T13:31:40.465Z,12.20
2023-05-20T13:34:12.306Z,12.87
2023-05-20T13:36:41.679Z,12.36
2023-05-20T13:39:10.058Z,12.49
2023-05-20T13:41:38.997Z,12.66
2023-05-20T13:44:08.130Z,12.49
2023-05-20T13:46:37.094Z,12.92
2023-05-20T13:49:05.589Z,12.11
2023-05-20T13:51:35.937Z,12.53
2023-05-20T13:54:04.947Z,12.62
2023-05-20T13:56:34.048Z,12.54
2023-05-20T13:59:02.646Z,12.41
2023-05-20T14:01:34.574Z,12.11
2023-05-20T14:04:03.757Z,12.42
2023-05-20T14:06:33.929Z,12.30
2023-05-20T14:09:04.136Z,12.59
2023-05-20T14:11:33.489Z,12.14
2023-05-20T14:14:02.679Z,12.44
2023-05-20T14:16:33.378Z,12.40
2023-05-20T14:19:01.945Z,12.21
2023-05-20T14:21:30.473Z,12.22
2023-05-20T14:24:02.203Z,12.45
2023-05-20T14:26:30.976Z,12.41
2023-05-20T14:29:00.144Z,12.07
2023-05-20T14:31:28.987Z,12.47
2023-05-20T14:33:57.837Z,12.46
2023-05-20T14:36:26.632Z,12.50
2023-05-20T14:38:55.643Z,12.21
2023-05-20T14:41:24.115Z,12.02
2023-05-20T14:43:52.799Z,11.92
2023-05-20T14:46:23.872Z,12.13
2023-05-20T14:48:53.039Z,12.13
2023-05-20T14:51:22.044Z,12.01
2023-05-20T14:53:50.275Z,12.37
2023-05-20T14:56:19.089Z,12.45
2023-05-20T14:58:47.995Z,12.46
2023-05-20T15:01:16.813Z,12.31
2023-05-20T15:03:46.314Z,11.72
2023-05-20T15:06:16.637Z,12.24
2023-05-20T15:08:47.459Z,12.11
2023-05-20T15:11:26.444Z,11.86
2023-05-20T15:13:55.599Z,11.78
2023-05-20T15:16:25.678Z,12.05
2023-05-20T15:18:54.386Z,12.14
2023-05-20T15:21:22.711Z,11.74
2023-05-20T15:24:15.574Z,11.64
2023-05-20T15:26:44.772Z,12.05
2023-05-20T15:29:14.652Z,11.96
2023-05-20T15:31:43.217Z,11.80
2023-05-20T15:37:24.793Z,11.46
2023-05-20T15:39:53.385Z,11.17
2023-05-20T15:42:26.070Z,12.15
2023-05-20T15:44:55.353Z,11.74
2023-05-20T15:47:24.091Z,11.40
2023-05-20T15:49:52.679Z,11.32
2023-05-20T15:52:21.640Z,11.25
2023-05-20T15:54:50.092Z,11.77
2023-05-20T15:57:18.299Z,11.26
2023-05-20T15:59:47.014Z,11.34
2023-05-20T16:02:16.869Z,11.04
2023-05-20T16:04:46.532Z,10.91
2023-05-20T16:07:16.372Z,11.37
2023-05-20T16:09:44.923Z,10.73
2023-05-20T16:12:13.812Z,11.20
2023-05-20T16:14:43.141Z,10.67
2023-05-20T16:17:13.530Z,11.07
2023-05-20T16:19:44.705Z,11.27
2023-05-20T16:22:14.751Z,10.82
2023-05-20T16:24:43.961Z,10.78
2023-05-20T16:27:12.984Z,11.03
2023-05-20T16:29:41.552Z,10.90
2023-05-20T16:32:09.953Z,10.22
2023-05-20T16:34:38.595Z,10.34
2023-05-20T16:37:07.213Z,10.65
2023-05-20T16:39:37.868Z,10.71
2023-05-20T16:42:09.596Z,10.19
2023-05-20T16:44:40.001Z,10.33
2023-05-20T16:47:09.793Z,10.85
2023-05-20T16:49:39.598Z,10.30
2023-05-20T16:52:08.672Z,10.64
2023-05-20T16:54:37.597Z,10.19
2023-05-20T16:57:07.108Z,10.31
2023-05-20T16:59:36.190Z,10.74
2023-05-20T17:02:04.565Z,10.63
2023-05-20T17:04:33.224Z,10.46
2023-05-20T17:07:02.323Z,10.60
2023-05-20T17:09:30.999Z,10.26
2023-05-20T17:12:00.700Z,10.33
2023-05-20T17:14:30.426Z,10.48
2023-05-20T17:17:00.335Z,10.32
2023-05-20T17:19:29.792Z,10.46
2023-05-20T17:21:58.662Z,9.85
2023-05-20T17:24:27.464Z,10.12
2023-05-20T17:26:56.251Z,9.79
2023-05-20T17:29:24.649Z,9.76
2023-05-20T17:31:53.893Z,10.11
2023-05-20T17:34:25.445Z,9.73
2023-05-20T17:36:54.259Z,10.06
2023-05-20T17:39:22.759Z,10.24
2023-05-20T17:41:51.764Z,10.33
2023-05-20T17:44:20.351Z,10.12
2023-05-20T17:46:49.546Z,9.76
2023-05-20T17:49:18.528Z,9.50
2023-05-20T17:51:47.678Z,10.29
2023-05-20T17:54:20.408Z,9.87
2023-05-20T17:56:51.739Z,10.25
2023-05-20T17:59:20.167Z,10.11
2023-05-20T18:01:49.306Z,9.68
2023-05-20T18:04:18.235Z,8.76
2023-05-20T18:06:46.736Z,9.15
2023-05-20T18:09:16.790Z,9.45
2023-05-20T18:11:49.630Z,9.25
2023-05-20T18:14:22.496Z,8.86
2023-05-20T18:16:51.280Z,8.83
2023-05-20T18:19:23.294Z,9.61
2023-05-20T18:21:53.008Z,9.00
2023-05-20T18:24:22.748Z,9.28
2023-05-20T18:26:51.898Z,9.21
2023-05-20T18:29:20.270Z,9.51
2023-05-20T18:31:48.659Z,9.17
2023-05-20T18:34:17.453Z,8.90
2023-05-20T18:36:47.137Z,9.30
2023-05-20T18:39:21.341Z,9.49
2023-05-20T18:41:49.940Z,9.60
2023-05-20T18:44:19.860Z,9.56
2023-05-20T18:46:48.596Z,9.36
2023-05-20T18:49:17.186Z,10.29
2023-05-20T18:51:48.546Z,9.39
2023-05-20T18:54:18.103Z,9.54
2023-05-20T18:56:49.462Z,9.50
2023-05-20T18:59:18.079Z,9.67
2023-05-20T19:01:47.176Z,9.66
2023-05-20T19:04:17.105Z,9.67
2023-05-20T19:06:48.892Z,9.72
2023-05-20T19:09:18.004Z,9.05
2023-05-20T19:11:47.786Z,8.88
2023-05-20T19:14:16.618Z,8.83
2023-05-20T19:16:45.921Z,9.36
2023-05-20T19:19:16.325Z,9.10
2023-05-20T19:21:48.033Z,9.16
2023-05-20T19:24:18.349Z,9.60
2023-05-20T19:26:48.235Z,9.31
2023-05-20T19:29:17.356Z,9.42
2023-05-20T19:31:46.563Z,9.42
2023-05-20T19:34:16.376Z,9.40
2023-05-20T19:36:48.465Z,9.47
2023-05-20T19:39:17.966Z,9.46
2023-05-20T19:41:49.514Z,9.78
2023-05-20T19:44:19.616Z,9.65
2023-05-20T19:46:48.333Z,9.19
2023-05-20T19:49:18.977Z,9.84
2023-05-20T19:51:47.667Z,9.66
2023-05-20T19:54:16.844Z,8.98
2023-05-20T19:56:46.662Z,8.86
2023-05-20T19:59:16.508Z,9.03
2023-05-20T20:01:46.332Z,8.93
2023-05-20T20:04:17.837Z,9.71
2023-05-20T20:06:48.131Z,9.67
2023-05-20T20:09:16.638Z,9.33
2023-05-20T20:11:45.705Z,9.23
2023-05-20T20:14:14.681Z,9.12
2023-05-20T20:16:49.945Z,9.32
2023-05-20T20:19:26.559Z,9.65
2023-05-20T20:21:59.468Z,9.33
2023-05-20T20:24:28.436Z,9.11
2023-05-20T20:26:57.590Z,9.48
2023-05-20T20:29:26.828Z,9.47
2023-05-20T20:31:56.099Z,9.45
2023-05-20T20:34:24.710Z,9.65
2023-05-20T20:36:54.983Z,9.55
2023-05-20T20:39:25.773Z,9.57
2023-05-20T20:41:55.079Z,9.51
2023-05-20T20:44:24.341Z,9.65
2023-05-20T20:46:55.303Z,9.01
2023-05-20T20:49:25.784Z,9.68
2023-05-20T20:51:57.377Z,9.62
2023-05-20T20:54:26.910Z,8.87
2023-05-20T20:56:57.481Z,9.28
2023-05-20T20:59:27.687Z,9.68
2023-05-20T21:01:56.303Z,9.01
2023-05-20T21:04:28.418Z,9.71
2023-05-20T21:06:58.152Z,9.62
2023-05-20T21:09:29.508Z,8.89
2023-05-20T21:12:01.391Z,9.21
2023-05-20T21:14:32.137Z,8.88
2023-05-20T21:17:01.218Z,8.92
2023-05-20T21:19:35.268Z,8.47
2023-05-20T21:22:04.705Z,8.76
2023-05-20T21:24:33.877Z,8.77
2023-05-20T21:27:03.414Z,8.06
2023-05-20T21:29:36.154Z,8.93
2023-05-20T21:32:05.982Z,8.03
2023-05-20T21:34:34.700Z,9.01
2023-05-20T21:37:02.918Z,8.81
2023-05-20T21:39:31.984Z,9.45
2023-05-20T21:42:01.806Z,9.70
2023-05-20T21:44:30.750Z,8.95
2023-05-20T21:46:58.896Z,9.21
2023-05-20T21:49:28.178Z,9.66
2023-05-20T21:51:56.571Z,9.46
2023-05-20T21:54:24.917Z,9.29
2023-05-20T21:56:53.831Z,9.14
2023-05-20T21:59:22.584Z,9.16
2023-05-20T22:01:52.402Z,9.75
2023-05-20T22:04:26.455Z,9.74
2023-05-20T22:06:55.826Z,9.00
2023-05-20T22:09:24.672Z,9.13
2023-05-20T22:11:53.635Z,9.96
2023-05-20T22:14:22.792Z,9.98
2023-05-20T22:16:51.153Z,9.77
2023-05-20T22:19:22.968Z,9.39
2023-05-20T22:21:52.036Z,9.30
2023-05-20T22:24:20.717Z,9.34
2023-05-20T22:26:49.708Z,9.87
2023-05-20T22:29:18.504Z,9.21
2023-05-20T22:31:48.004Z,9.41
2023-05-20T22:34:18.051Z,9.67
2023-05-20T22:36:49.889Z,9.61
2023-05-20T22:39:18.726Z,9.80
2023-05-20T22:41:48.389Z,9.99
2023-05-20T22:44:17.964Z,9.53
2023-05-20T22:46:47.813Z,10.03
2023-05-20T22:49:19.432Z,10.31
2023-05-20T22:51:49.635Z,9.93
2023-05-20T22:54:18.922Z,10.00
2023-05-20T22:56:49.057Z,10.27
2023-05-20T22:59:18.042Z,10.21
2023-05-20T23:01:48.601Z,10.82
2023-05-20T23:04:20.451Z,10.57
2023-05-20T23:06:54.303Z,10.57
2023-05-20T23:09:22.617Z,11.13
2023-05-20T23:11:52.737Z,10.53
2023-05-20T23:14:22.043Z,11.14
2023-05-20T23:16:51.393Z,11.23
2023-05-20T23:19:38.071Z,11.20
2023-05-20T23:22:07.286Z,11.18
2023-05-20T23:24:38.197Z,11.31
2023-05-20T23:27:07.065Z,11.16
2023-05-20T23:29:42.679Z,11.19
2023-05-20T23:32:15.132Z,11.45
2023-05-20T23:34:47.178Z,10.94
2023-05-20T23:37:19.137Z,11.43
2023-05-20T23:39:50.464Z,10.89
2023-05-20T23:42:19.020Z,11.35
2023-05-20T23:44:48.721Z,11.07
2023-05-20T23:47:19.253Z,10.39
2023-05-20T23:49:56.897Z,10.76
2023-05-20T23:52:26.319Z,11.03
2023-05-20T23:54:55.259Z,11.15
2023-05-20T23:57:58.598Z,11.23
